M I D A S
Marine Information and Data Acquisition System
Tripno 905 of the Zeeleeuw from 2005-05-26 06:19:52 to 2005-05-26 13:04:20
Back to CruiseResearch ActivitiesStationsMapUnderway DataData graphs

EquipmentUnitsComments
TimeDGPSUTC
LatitudeDGPSDM.mWGS84
LongitudeDGPSDM.mWGS84
SpeedMeteo Stationm/sRelative wind speed
DirectionMeteo StationdegRelative wind direction
TemperatureMeteo Stationdeg CelciusAir temperature
PressureMeteo StationPaAtmospheric pressure
HumidityMeteo Station%Relative humidity
Missing or incorrect values are displayed as -999
Metereological data collected by the RV Zeeleeuw from 2005-05-26 06:20:44 to 2005-05-26 13:17:14
Time Latitude Longitude Speed Direction Temperature Pressure Humidity
2005-05-26 06:21 51°13.617 2°56.04 2.4 112 18 101680 68
2005-05-26 06:22 51°13.633 2°55.984 3.1 101 18.1 101680 67
2005-05-26 06:23 51°13.658 2°55.9 2.6 68 18.1 101680 68
2005-05-26 06:24 51°13.701 2°55.779 2.9 93 18.2 101680 67
2005-05-26 06:25 51°13.775 2°55.673 3.6 42 18.3 101680 67
2005-05-26 06:26 51°13.874 2°55.637 2.9 349 18.3 101670 66
2005-05-26 06:27 51°13.935 2°55.66 3.9 306 18.4 101670 66
2005-05-26 06:28 51°13.961 2°55.565 3.4 243 18.5 101670 66
2005-05-26 06:29 51°14.058 2°55.473 1.4 246 18.5 101670 66
2005-05-26 06:30 51°14.184 2°55.371 1 354 18.6 101670 66
2005-05-26 06:31 51°14.308 2°55.219 2.6 289 18.7 101670 65
2005-05-26 06:32 51°14.416 2°54.985 8.1 269 18.8 101660 65
2005-05-26 06:33 51°14.55 2°54.75 5.2 280 18.8 101660 64
2005-05-26 06:34 51°14.723 2°54.524 4 284 18.8 101650 64
2005-05-26 06:35 51°14.905 2°54.307 3.3 260 18.8 101650 63
2005-05-26 06:36 51°15.089 2°54.121 3.2 276 18.7 101660 64
2005-05-26 06:37 51°15.275 2°53.916 2.8 285 18.6 101650 64
2005-05-26 06:38 51°15.477 2°53.744 3.9 264 18.5 101650 65
2005-05-26 06:39 51°15.678 2°53.552 2.8 263 18.5 101650 65
2005-05-26 06:40 51°15.879 2°53.36 2 261 18.4 101650 66
2005-05-26 06:41 51°16.083 2°53.179 2.5 273 18.3 101650 66
2005-05-26 06:42 51°16.29 2°53.017 2 277 18.2 101650 67
2005-05-26 06:43 51°16.505 2°52.858 2.1 265 18.2 101650 67
2005-05-26 06:44 51°16.717 2°52.701 2.5 273 18.2 101650 67
2005-05-26 06:45 51°16.92 2°52.546 2.5 279 18.1 101650 67
2005-05-26 06:46 51°17.125 2°52.401 2.6 271 18.1 101650 68
2005-05-26 06:47 51°17.331 2°52.227 2.2 302 18 101650 68
2005-05-26 06:48 51°17.533 2°52.046 2.8 289 18 101650 68
2005-05-26 06:49 51°17.724 2°51.852 3.5 295 17.8 101650 69
2005-05-26 06:50 51°17.904 2°51.622 4.4 295 17.7 101660 69
2005-05-26 06:51 51°18.083 2°51.366 4.4 292 17.6 101650 70
2005-05-26 06:52 51°18.249 2°51.093 6.5 297 17.5 101660 70
2005-05-26 06:53 51°18.378 2°50.768 7.8 299 17.3 101650 71
2005-05-26 06:54 51°18.491 2°50.432 7.7 306 17.2 101650 72
2005-05-26 06:55 51°18.602 2°50.089 7.1 308 17.1 101650 72
2005-05-26 06:56 51°18.703 2°49.735 7.7 309 16.9 101650 73
2005-05-26 06:57 51°18.799 2°49.383 6.8 303 16.8 101650 73
2005-05-26 06:58 51°18.897 2°49.022 7.7 312 16.8 101650 74
2005-05-26 06:59 51°18.997 2°48.659 7.5 309 16.7 101650 75
2005-05-26 07:00 51°19.091 2°48.302 7.5 304 16.6 101640 75
2005-05-26 07:01 51°19.181 2°47.94 8.3 305 16.5 101640 75
2005-05-26 07:02 51°19.261 2°47.572 8.3 305 16.5 101630 76
2005-05-26 07:03 51°19.342 2°47.203 8.8 305 16.4 101630 76
2005-05-26 07:04 51°19.426 2°46.83 7.8 307 16.4 101630 76
2005-05-26 07:05 51°19.496 2°46.455 8.6 309 16.3 101630 76
2005-05-26 07:06 51°19.557 2°46.076 9.1 310 16.3 101630 76
2005-05-26 07:07 51°19.618 2°45.695 8.8 305 16.2 101630 77
2005-05-26 07:08 51°19.681 2°45.316 9 310 16.2 101630 77
2005-05-26 07:09 51°19.738 2°44.927 8.5 309 16.2 101620 77
2005-05-26 07:10 51°19.795 2°44.539 9 306 16.1 101620 77
2005-05-26 07:11 51°19.852 2°44.154 8.5 307 16.1 101620 78
2005-05-26 07:12 51°19.911 2°43.772 7.5 306 16 101620 78
2005-05-26 07:13 51°19.97 2°43.392 7.9 306 15.9 101620 78
2005-05-26 07:14 51°20.033 2°43.009 7.8 311 15.9 101620 79
2005-05-26 07:15 51°20.092 2°42.633 7.4 310 15.8 101630 79
2005-05-26 07:16 51°20.146 2°42.253 7.7 310 15.7 101620 79
2005-05-26 07:17 51°20.204 2°41.87 8 313 15.6 101620 80
2005-05-26 07:18 51°20.263 2°41.48 7.4 313 15.6 101620 80
2005-05-26 07:19 51°20.322 2°41.096 7.9 310 15.6 101620 80
2005-05-26 07:20 51°20.381 2°40.709 8 311 15.6 101620 81
2005-05-26 07:21 51°20.439 2°40.317 8 311 15.6 101620 81
2005-05-26 07:22 51°20.488 2°39.931 9.4 310 15.7 101620 81
2005-05-26 07:23 51°20.512 2°39.531 8 315 15.7 101620 80
2005-05-26 07:24 51°20.537 2°39.137 8.8 313 15.7 101620 81
2005-05-26 07:25 51°20.562 2°38.737 9.3 311 15.7 101620 81
2005-05-26 07:26 51°20.585 2°38.349 8.6 312 15.7 101620 81
2005-05-26 07:27 51°20.607 2°37.951 8.8 312 15.7 101620 81
2005-05-26 07:28 51°20.629 2°37.555 9.2 236 15.6 101620 81
2005-05-26 07:29 51°20.653 2°37.161 8.8 314 15.5 101620 81
2005-05-26 07:30 51°20.676 2°36.762 8.9 313 15.5 101620 81
2005-05-26 07:31 51°20.699 2°36.365 8.3 229 15.4 101620 82
2005-05-26 07:32 51°20.723 2°35.961 8.4 316 15.3 101620 82
2005-05-26 07:33 51°20.745 2°35.563 9 316 15.3 101620 82
2005-05-26 07:34 51°20.766 2°35.162 8.7 319 15.2 101620 82
2005-05-26 07:35 51°20.788 2°34.758 8.7 318 15.1 101620 83
2005-05-26 07:36 51°20.875 2°34.399 5.3 311 15 101630 83
2005-05-26 07:37 51°21.029 2°34.1 4 307 15 101630 83
2005-05-26 07:38 51°21.222 2°33.88 3 227 14.9 101640 83
2005-05-26 07:39 51°21.431 2°33.703 1.3 336 14.9 101640 84
2005-05-26 07:40 51°21.646 2°33.565 1.5 336 14.9 101640 84
2005-05-26 07:41 51°21.867 2°33.423 1.4 227 14.9 101640 84
2005-05-26 07:42 51°22.084 2°33.268 2.1 300 14.9 101640 84
2005-05-26 07:43 51°22.281 2°33.045 4.9 296 14.9 101630 84
2005-05-26 07:44 51°22.43 2°32.736 5.1 300 14.9 101630 84
2005-05-26 07:45 51°22.544 2°32.396 8.5 307 14.9 101610 84
2005-05-26 07:46 51°22.581 2°31.998 9.8 311 14.9 101610 84
2005-05-26 07:47 51°22.603 2°31.596 9.2 311 14.9 101600 84
2005-05-26 07:48 51°22.597 2°31.194 9.7 313 14.9 101590 84
2005-05-26 07:49 51°22.589 2°30.786 10.3 314 14.9 101590 83
2005-05-26 07:50 51°22.583 2°30.376 10.5 228 15 101590 83
2005-05-26 07:51 51°22.58 2°29.961 10.4 227 15 101600 83
2005-05-26 07:52 51°22.577 2°29.547 10.9 228 15 101600 83
2005-05-26 07:53 51°22.573 2°29.141 11.5 314 15.1 101600 83
2005-05-26 07:54 51°22.571 2°28.733 10.5 231 15.1 101600 83
2005-05-26 07:55 51°22.569 2°28.331 9.6 315 15.1 101600 83
2005-05-26 07:56 51°22.568 2°27.927 9.8 312 15.1 101600 83
2005-05-26 07:57 51°22.566 2°27.521 9.9 314 15.1 101600 82
2005-05-26 07:58 51°22.564 2°27.117 10.9 231 15.1 101600 82
2005-05-26 07:59 51°22.576 2°26.708 9.7 311 15.1 101600 82
2005-05-26 08:00 51°22.609 2°26.306 8.6 301 15.2 101600 82
2005-05-26 08:01 51°22.733 2°25.978 3.8 279 15.2 101620 82
2005-05-26 08:02 51°22.931 2°25.781 2.7 301 15.3 101620 82
2005-05-26 08:03 51°23.137 2°25.611 1.5 339 15.5 101620 82
2005-05-26 08:04 51°23.355 2°25.5 0.5 259 15.6 101630 82
2005-05-26 08:05 51°23.568 2°25.391 1.1 226 15.7 101630 81
2005-05-26 08:06 51°23.778 2°25.281 1.2 240 15.9 101630 81
2005-05-26 08:07 51°23.992 2°25.261 2.1 90 16 101630 79
2005-05-26 08:08 51°24.21 2°25.275 2.1 105 15.9 101620 78
2005-05-26 08:09 51°24.423 2°25.284 1.8 115 15.8 101620 78
2005-05-26 08:10 51°24.635 2°25.29 1.4 106 15.7 101620 79
2005-05-26 08:11 51°24.85 2°25.288 1.1 104 15.6 101620 79
2005-05-26 08:12 51°25.061 2°25.289 1.2 113 15.6 101620 79
2005-05-26 08:13 51°25.276 2°25.287 0.7 124 15.6 101620 79
2005-05-26 08:14 51°25.489 2°25.289 1.5 127 15.6 101630 79
2005-05-26 08:15 51°25.703 2°25.288 1.3 144 15.6 101620 79
2005-05-26 08:16 51°25.917 2°25.289 1.3 141 15.7 101620 80
2005-05-26 08:17 51°26.132 2°25.289 1.9 129 15.7 101620 79
2005-05-26 08:18 51°26.345 2°25.293 1.6 132 15.8 101620 79
2005-05-26 08:19 51°26.558 2°25.293 2 134 15.7 101620 78
2005-05-26 08:20 51°26.772 2°25.293 0.8 139 15.8 101620 79
2005-05-26 08:21 51°26.98 2°25.293 1 144 15.8 101620 79
2005-05-26 08:22 51°27.193 2°25.295 1.1 142 15.8 101620 78
2005-05-26 08:23 51°27.403 2°25.298 1.3 157 15.8 101610 78
2005-05-26 08:24 51°27.613 2°25.3 1.2 134 15.9 101610 78
2005-05-26 08:25 51°27.821 2°25.302 1 158 15.9 101610 78
2005-05-26 08:26 51°28.033 2°25.304 1.5 152 16 101610 78
2005-05-26 08:27 51°28.241 2°25.309 0.6 130 16 101610 78
2005-05-26 08:28 51°28.449 2°25.316 1.5 135 16.1 101610 77
2005-05-26 08:29 51°28.658 2°25.323 1.1 154 16.1 101610 77
2005-05-26 08:30 51°28.86 2°25.359 1.9 129 16 101610 76
2005-05-26 08:31 51°29.067 2°25.404 2 121 15.9 101610 76
2005-05-26 08:32 51°29.27 2°25.45 2.4 121 15.8 101610 77
2005-05-26 08:33 51°29.475 2°25.491 2.4 123 15.7 101610 78
2005-05-26 08:34 51°29.683 2°25.533 2.6 124 15.6 101610 78
2005-05-26 08:35 51°29.887 2°25.577 2 113 15.5 101600 79
2005-05-26 08:36 51°30.095 2°25.619 2.1 97 15.4 101600 79
2005-05-26 08:37 51°30.299 2°25.658 2 112 15.3 101610 80
2005-05-26 08:38 51°30.503 2°25.697 2.1 91 15.2 101600 80
2005-05-26 08:39 51°30.708 2°25.729 1.9 93 15.2 101600 81
2005-05-26 08:40 51°30.914 2°25.769 3.2 88 15.1 101600 81
2005-05-26 08:41 51°31.089 2°25.916 6.2 82 15 101600 81
2005-05-26 08:42 51°31.26 2°26.076 5.2 80 14.9 101600 82
2005-05-26 08:43 51°31.435 2°26.221 5.4 83 14.8 101600 82
2005-05-26 08:44 51°31.614 2°26.37 4.9 77 14.7 101600 83
2005-05-26 08:45 51°31.792 2°26.508 5.2 85 14.7 101600 83
2005-05-26 08:46 51°31.966 2°26.644 4.9 83 14.6 101600 83
2005-05-26 08:47 51°32.146 2°26.784 5.3 85 14.6 101600 84
2005-05-26 08:48 51°32.323 2°26.921 5.2 83 14.6 101600 84
2005-05-26 08:49 51°32.487 2°27.082 6 88 14.5 101600 84
2005-05-26 08:50 51°32.653 2°27.242 5.3 88 14.5 101590 85
2005-05-26 08:51 51°32.823 2°27.396 5.8 88 14.4 101600 85
2005-05-26 08:52 51°32.991 2°27.549 5.2 97 14.4 101600 85
2005-05-26 08:53 51°33.16 2°27.705 5.5 95 14.4 101600 85
2005-05-26 08:54 51°33.331 2°27.86 5.1 90 14.4 101600 85
2005-05-26 08:55 51°33.5 2°28.018 5.1 93 14.4 101600 86
2005-05-26 08:56 51°33.669 2°28.174 5.1 101 14.4 101600 86
2005-05-26 08:57 51°33.838 2°28.332 5 97 14.4 101600 86
2005-05-26 08:58 51°34.01 2°28.49 4.5 100 14.5 101600 86
2005-05-26 08:59 51°34.18 2°28.649 5.1 95 14.5 101600 86
2005-05-26 09:00 51°34.349 2°28.804 4.7 108 14.5 101600 85
2005-05-26 09:01 51°34.519 2°28.964 4.6 102 14.5 101590 85
2005-05-26 09:02 51°34.687 2°29.121 4.9 103 14.6 101590 85
2005-05-26 09:03 51°34.857 2°29.283 5.3 105 14.6 101590 85
2005-05-26 09:04 51°35.025 2°29.442 4 95 14.6 101590 85
2005-05-26 09:05 51°35.195 2°29.599 5.1 112 14.6 101590 85
2005-05-26 09:06 51°35.363 2°29.762 4.4 112 14.6 101590 85
2005-05-26 09:07 51°35.531 2°29.922 4.9 101 14.6 101590 85
2005-05-26 09:08 51°35.702 2°30.087 4.4 104 14.6 101590 85
2005-05-26 09:09 51°35.871 2°30.25 4.2 115 14.6 101590 85
2005-05-26 09:10 51°36.04 2°30.412 5.5 107 14.7 101590 85
2005-05-26 09:11 51°36.211 2°30.579 5.5 110 14.7 101590 85
2005-05-26 09:12 51°36.384 2°30.747 5 114 14.7 101590 85
2005-05-26 09:13 51°36.55 2°30.91 3.9 107 14.8 101590 84
2005-05-26 09:14 51°36.715 2°31.077 4.5 112 14.8 101590 84
2005-05-26 09:15 51°36.881 2°31.248 4.3 108 14.8 101590 84
2005-05-26 09:16 51°37.049 2°31.419 4 110 14.8 101590 84
2005-05-26 09:17 51°37.217 2°31.588 4.3 112 14.9 101590 84
2005-05-26 09:18 51°37.382 2°31.752 4.6 119 14.9 101590 84
2005-05-26 09:19 51°37.548 2°31.923 4.5 124 14.9 101590 83
2005-05-26 09:20 51°37.71 2°32.09 4.6 106 15 101590 83
2005-05-26 09:21 51°37.877 2°32.263 4.4 112 15 101580 83
2005-05-26 09:22 51°38.044 2°32.433 5.3 114 15 101580 83
2005-05-26 09:23 51°38.208 2°32.605 4.8 115 15.1 101580 82
2005-05-26 09:24 51°38.375 2°32.777 3.8 118 15.1 101580 82
2005-05-26 09:25 51°38.545 2°32.947 4.1 114 15.1 101580 82
2005-05-26 09:26 51°38.713 2°33.116 3.9 116 15.2 101590 82
2005-05-26 09:27 51°38.88 2°33.285 4.3 112 15.2 101580 82
2005-05-26 09:28 51°39.047 2°33.453 4.5 105 15.2 101580 81
2005-05-26 09:29 51°39.215 2°33.613 4.5 101 15.3 101580 81
2005-05-26 09:30 51°39.389 2°33.779 4.1 98 15.3 101580 81
2005-05-26 09:31 51°39.558 2°33.939 3.9 102 15.3 101580 81
2005-05-26 09:32 51°39.73 2°34.104 4.2 107 15.2 101580 81
2005-05-26 09:33 51°39.902 2°34.264 4 96 15.2 101580 81
2005-05-26 09:34 51°40.072 2°34.422 4 100 15.1 101580 81
2005-05-26 09:35 51°40.244 2°34.583 4.8 98 15.1 101580 81
2005-05-26 09:36 51°40.413 2°34.739 5.6 97 15.1 101580 81
2005-05-26 09:37 51°40.535 2°34.992 8.5 81 15.1 101570 82
2005-05-26 09:38 51°40.645 2°35.252 8.1 87 15 101570 82
2005-05-26 09:39 51°40.758 2°35.52 5.9 83 15 101570 82
2005-05-26 09:40 51°40.87 2°35.776 6.6 78 14.9 101570 82
2005-05-26 09:41 51°40.978 2°36.043 7 79 14.9 101570 83
2005-05-26 09:42 51°40.96 2°36.356 11.9 56 14.9 101550 83
2005-05-26 09:43 51°40.863 2°36.658 14.4 49 14.8 101550 83
2005-05-26 09:44 51°40.758 2°36.962 12.8 54 14.8 101550 83
2005-05-26 09:45 51°40.65 2°37.267 13.1 51 14.8 101550 83
2005-05-26 09:46 51°40.54 2°37.578 12.7 52 14.8 101550 84
2005-05-26 09:47 51°40.43 2°37.892 11.5 54 14.8 101550 84
2005-05-26 09:48 51°40.324 2°38.201 12.3 53 14.8 101550 84
2005-05-26 09:49 51°40.214 2°38.513 12.6 54 14.8 101550 84
2005-05-26 09:50 51°40.098 2°38.81 12.6 54 14.8 101550 84
2005-05-26 09:51 51°39.978 2°39.116 12.7 54 14.8 101540 84
2005-05-26 09:52 51°39.859 2°39.414 14.7 52 14.7 101550 84
2005-05-26 09:53 51°39.744 2°39.709 12.6 54 14.8 101540 84
2005-05-26 09:54 51°39.628 2°40.013 12.2 53 14.8 101540 84
2005-05-26 09:55 51°39.512 2°40.316 13.1 56 14.8 101540 85
2005-05-26 09:56 51°39.396 2°40.61 12.9 55 14.9 101530 84
2005-05-26 09:57 51°39.283 2°40.905 13.3 58 15 101540 84
2005-05-26 09:58 51°39.166 2°41.205 13.7 55 15 101540 83
2005-05-26 09:59 51°39.048 2°41.489 12.6 58 15 101550 83
2005-05-26 10:00 51°38.935 2°41.785 13 56 15 101540 84
2005-05-26 10:01 51°38.744 2°41.965 15.1 20 15 101560 84
2005-05-26 10:02 51°38.497 2°41.965 16.8 13 15.2 101570 83
2005-05-26 10:03 51°38.246 2°41.954 15.2 15 15.4 101570 83
2005-05-26 10:04 51°37.998 2°41.94 15.4 18 15.5 101570 82
2005-05-26 10:05 51°37.75 2°41.922 15.6 17 15.5 101570 81
2005-05-26 10:06 51°37.501 2°41.858 15.5 352 15.5 101580 81
2005-05-26 10:07 51°37.37 2°41.528 12.3 322 15.5 101560 81
2005-05-26 10:08 51°37.361 2°41.131 12.9 326 15.5 101570 81
2005-05-26 10:09 51°37.36 2°40.728 12.4 326 15.4 101580 81
2005-05-26 10:10 51°37.361 2°40.327 12.3 323 15.3 101570 81
2005-05-26 10:11 51°37.366 2°39.933 12.9 324 15.3 101570 82
2005-05-26 10:12 51°37.37 2°39.544 14.1 324 15.3 101560 82
2005-05-26 10:13 51°37.375 2°39.156 14.1 323 15.4 101560 82
2005-05-26 10:14 51°37.38 2°38.766 13.9 321 15.6 101570 81
2005-05-26 10:15 51°37.383 2°38.384 14.1 319 15.7 101560 80
2005-05-26 10:16 51°37.387 2°37.989 14.2 321 15.7 101560 79
2005-05-26 10:17 51°37.392 2°37.604 13.9 319 15.7 101550 79
2005-05-26 10:18 51°37.414 2°37.23 13 319 15.7 101560 78
2005-05-26 10:19 51°37.441 2°36.851 13.9 316 15.6 101560 78
2005-05-26 10:20 51°37.467 2°36.466 13 319 15.6 101560 78
2005-05-26 10:21 51°37.49 2°36.079 14.1 321 15.5 101560 78
2005-05-26 10:22 51°37.512 2°35.696 14.5 316 15.5 101560 78
2005-05-26 10:23 51°37.535 2°35.304 14.2 315 15.5 101550 78
2005-05-26 10:24 51°37.561 2°34.916 13.3 320 15.5 101550 78
2005-05-26 10:25 51°37.589 2°34.534 13.8 323 15.5 101560 77
2005-05-26 10:26 51°37.578 2°34.147 16 346 15.4 101560 78
2005-05-26 10:27 51°37.412 2°33.864 15.9 10 15.4 101570 78
2005-05-26 10:28 51°37.177 2°33.715 14.4 12 15.4 101580 78
2005-05-26 10:29 51°36.944 2°33.575 15.5 18 15.3 101580 78
2005-05-26 10:30 51°36.712 2°33.437 15.1 14 15.2 101580 78
2005-05-26 10:31 51°36.482 2°33.298 15.4 16 15.2 101580 79
2005-05-26 10:32 51°36.25 2°33.156 15.2 15 15.1 101570 79
2005-05-26 10:33 51°36.017 2°33.015 16.3 19 15 101580 79
2005-05-26 10:34 51°35.784 2°32.874 15.9 14 15 101580 79
2005-05-26 10:35 51°35.549 2°32.731 15.9 14 14.9 101580 79
2005-05-26 10:36 51°35.312 2°32.601 15.3 20 14.9 101590 79
2005-05-26 10:37 51°35.076 2°32.471 14.5 19 14.9 101570 80
2005-05-26 10:38 51°34.844 2°32.344 15.5 20 14.8 101570 80
2005-05-26 10:39 51°34.61 2°32.214 15.2 20 14.8 101570 80
2005-05-26 10:40 51°34.379 2°32.092 14.9 20 14.8 101570 80
2005-05-26 10:41 51°34.139 2°31.97 13.6 20 14.8 101580 80
2005-05-26 10:42 51°33.902 2°31.853 14 17 14.7 101580 80
2005-05-26 10:43 51°33.666 2°31.74 12.6 16 14.6 101580 80
2005-05-26 10:44 51°33.431 2°31.626 12.2 15 14.6 101590 80
2005-05-26 10:45 51°33.193 2°31.514 14.1 20 14.5 101580 81
2005-05-26 10:46 51°32.955 2°31.405 13.9 20 14.5 101570 81
2005-05-26 10:47 51°32.716 2°31.317 15 31 14.7 101570 80
2005-05-26 10:48 51°32.468 2°31.25 15.8 38 14.8 101550 79
2005-05-26 10:49 51°32.222 2°31.212 14.9 37 14.8 101550 78
2005-05-26 10:50 51°31.98 2°31.205 16.1 40 14.8 101540 78
2005-05-26 10:51 51°31.732 2°31.252 14.9 58 14.9 101540 77
2005-05-26 10:52 51°31.51 2°31.377 14.9 63 14.8 101540 77
2005-05-26 10:53 51°31.295 2°31.532 10.9 70 14.8 101550 77
2005-05-26 10:54 51°31.091 2°31.722 11.6 72 14.8 101550 77
2005-05-26 10:55 51°30.894 2°31.929 11 74 14.8 101560 77
2005-05-26 10:56 51°30.72 2°32.173 10.1 80 14.9 101550 77
2005-05-26 10:57 51°30.564 2°32.437 11.7 84 15 101570 76
2005-05-26 10:58 51°30.404 2°32.703 12 83 14.9 101570 77
2005-05-26 10:59 51°30.243 2°32.969 12 84 14.9 101560 77
2005-05-26 11:00 51°30.083 2°33.224 11.2 83 14.9 101570 76
2005-05-26 11:01 51°29.917 2°33.463 10.1 74 14.9 101560 76
2005-05-26 11:02 51°29.734 2°33.695 10.1 74 14.9 101570 76
2005-05-26 11:03 51°29.569 2°33.932 10.6 83 14.9 101570 77
2005-05-26 11:04 51°29.403 2°34.201 9.5 80 14.9 101570 77
2005-05-26 11:05 51°29.257 2°34.465 9.5 89 14.9 101580 77
2005-05-26 11:06 51°29.151 2°34.773 7.6 94 14.8 101600 77
2005-05-26 11:07 51°29.118 2°35.115 5.6 95 14.8 101600 77
2005-05-26 11:08 51°29.113 2°35.453 5.4 65 14.8 101610 78
2005-05-26 11:09 51°29.105 2°35.805 6 60 14.7 101610 78
2005-05-26 11:10 51°29.096 2°36.145 4.9 74 14.7 101610 79
2005-05-26 11:11 51°29.081 2°36.49 5.2 75 14.7 101610 79
2005-05-26 11:12 51°29.064 2°36.833 6.7 84 14.8 101610 78
2005-05-26 11:13 51°29.048 2°37.167 6.1 93 14.8 101610 78
2005-05-26 11:14 51°29.033 2°37.501 6.4 85 14.9 101610 78
2005-05-26 11:15 51°28.943 2°37.815 9.7 63 14.9 101610 78
2005-05-26 11:16 51°28.757 2°38.022 12.3 56 14.8 101590 78
2005-05-26 11:17 51°28.548 2°38.189 12.4 57 14.8 101580 78
2005-05-26 11:18 51°28.337 2°38.356 12.1 55 14.8 101580 78
2005-05-26 11:19 51°28.12 2°38.528 12.4 54 14.8 101580 78
2005-05-26 11:20 51°27.912 2°38.695 12.4 58 14.8 101580 78
2005-05-26 11:21 51°27.696 2°38.865 12.5 54 14.8 101580 78
2005-05-26 11:22 51°27.483 2°39.021 12.4 52 14.9 101580 78
2005-05-26 11:23 51°27.253 2°39.153 13.3 52 14.9 101570 78
2005-05-26 11:24 51°27.025 2°39.278 12.9 51 15 101570 77
2005-05-26 11:25 51°26.799 2°39.392 13.3 49 15.1 101570 77
2005-05-26 11:26 51°26.573 2°39.496 12.5 46 15.2 101570 76
2005-05-26 11:27 51°26.354 2°39.594 12.5 52 15.2 101580 76
2005-05-26 11:28 51°26.14 2°39.689 11.9 50 15.3 101570 76
2005-05-26 11:29 51°25.917 2°39.79 13 48 15.3 101580 76
2005-05-26 11:30 51°25.699 2°39.89 12.1 52 15.3 101580 76
2005-05-26 11:31 51°25.476 2°39.988 12.6 46 15.3 101590 75
2005-05-26 11:32 51°25.253 2°40.073 11.9 49 15.3 101590 75
2005-05-26 11:33 51°25.029 2°40.158 11.4 42 15.3 101580 75
2005-05-26 11:34 51°24.799 2°40.246 11.5 43 15.3 101590 74
2005-05-26 11:35 51°24.573 2°40.337 12.1 43 15.3 101590 74
2005-05-26 11:36 51°24.347 2°40.431 12.9 50 15.3 101590 74
2005-05-26 11:37 51°24.126 2°40.522 12.1 51 15.3 101590 74
2005-05-26 11:38 51°23.894 2°40.617 12.4 43 15.3 101590 74
2005-05-26 11:39 51°23.662 2°40.566 13.7 41 15.3 101590 74
2005-05-26 11:40 51°23.434 2°40.498 13.9 41 15.4 101590 73
2005-05-26 11:41 51°23.211 2°40.412 13.3 48 15.4 101590 73
2005-05-26 11:42 51°22.979 2°40.377 14.6 52 15.4 101590 73
2005-05-26 11:43 51°22.749 2°40.345 13 46 15.5 101590 73
2005-05-26 11:44 51°22.565 2°40.17 15.2 5 15.5 101590 73
2005-05-26 11:45 51°22.488 2°39.812 15 4 15.7 101590 72
2005-05-26 11:46 51°22.408 2°39.459 17.2 10 15.8 101580 71
2005-05-26 11:47 51°22.305 2°39.119 17.1 10 15.8 101590 71
2005-05-26 11:48 51°22.167 2°38.824 17.2 24 15.9 101600 70
2005-05-26 11:49 51°21.956 2°38.697 14.3 50 16 101580 68
2005-05-26 11:50 51°21.725 2°38.744 14.3 64 15.9 101590 69
2005-05-26 11:51 51°21.524 2°38.899 9 78 15.8 101590 70
2005-05-26 11:52 51°21.363 2°39.168 9.4 86 15.8 101620 70
2005-05-26 11:53 51°21.202 2°39.434 10.5 85 15.7 101620 71
2005-05-26 11:54 51°21.053 2°39.71 9.3 91 15.7 101620 71
2005-05-26 11:55 51°20.901 2°39.991 8.6 85 15.7 101630 71
2005-05-26 11:56 51°20.77 2°40.304 6.9 94 15.7 101630 72
2005-05-26 11:57 51°20.659 2°40.63 7.1 94 15.7 101630 72
2005-05-26 11:58 51°20.551 2°40.948 7.4 95 15.8 101630 72
2005-05-26 11:59 51°20.438 2°41.281 6.9 86 15.8 101630 72
2005-05-26 12:00 51°20.331 2°41.613 6.8 86 15.7 101630 72
2005-05-26 12:01 51°20.231 2°41.939 6 89 15.8 101630 72
2005-05-26 12:02 51°20.131 2°42.268 6.3 92 15.8 101630 72
2005-05-26 12:03 51°20.041 2°42.605 5.9 91 15.8 101640 72
2005-05-26 12:04 51°19.957 2°42.939 5 95 15.8 101630 72
2005-05-26 12:05 51°19.874 2°43.272 5.9 89 15.9 101630 72
2005-05-26 12:06 51°19.788 2°43.614 5.7 91 15.9 101630 72
2005-05-26 12:07 51°19.706 2°43.941 5.6 101 15.9 101630 72
2005-05-26 12:08 51°19.623 2°44.284 5.7 101 16 101630 72
2005-05-26 12:09 51°19.543 2°44.615 5.7 95 16 101630 71
2005-05-26 12:10 51°19.458 2°44.96 5.7 96 16.1 101630 71
2005-05-26 12:11 51°19.368 2°45.302 5.5 94 16.1 101630 72
2005-05-26 12:12 51°19.281 2°45.645 5.4 100 16.1 101630 72
2005-05-26 12:13 51°19.191 2°45.998 5.8 99 16.1 101630 72
2005-05-26 12:14 51°19.108 2°46.331 4.7 101 16.1 101630 72
2005-05-26 12:15 51°19.023 2°46.672 6.1 104 16.1 101630 72
2005-05-26 12:16 51°18.936 2°47.016 5.1 104 16.1 101630 72
2005-05-26 12:17 51°18.854 2°47.358 4.8 114 16.2 101630 72
2005-05-26 12:18 51°18.769 2°47.708 5 98 16.2 101630 72
2005-05-26 12:19 51°18.683 2°48.057 4.9 108 16.2 101630 72
2005-05-26 12:20 51°18.599 2°48.4 4.9 102 16.2 101630 72
2005-05-26 12:21 51°18.513 2°48.749 4.3 96 16.2 101630 72
2005-05-26 12:22 51°18.425 2°49.114 4.9 97 16.2 101630 72
2005-05-26 12:23 51°18.34 2°49.469 4.4 96 16.3 101630 72
2005-05-26 12:24 51°18.253 2°49.819 4.6 99 16.3 101630 72
2005-05-26 12:25 51°18.168 2°50.169 4.3 107 16.3 101630 72
2005-05-26 12:26 51°18.083 2°50.516 4.8 100 16.3 101630 72
2005-05-26 12:27 51°18 2°50.863 4.5 97 16.4 101630 72
2005-05-26 12:28 51°17.913 2°51.21 5.3 98 16.4 101640 72
2005-05-26 12:29 51°17.803 2°51.538 6.3 87 16.4 101630 72
2005-05-26 12:30 51°17.674 2°51.835 7.3 90 16.4 101630 72
2005-05-26 12:31 51°17.496 2°52.076 7.7 79 16.3 101620 72
2005-05-26 12:32 51°17.305 2°52.254 8.7 70 16.3 101620 72
2005-05-26 12:33 51°17.092 2°52.383 10.8 58 16.3 101610 72
2005-05-26 12:34 51°16.872 2°52.386 12 55 16.2 101610 72
2005-05-26 12:35 51°16.653 2°52.382 12.6 56 16.2 101600 73
2005-05-26 12:36 51°16.434 2°52.384 12.4 58 16.1 101600 73
2005-05-26 12:37 51°16.215 2°52.392 12.9 58 16.1 101600 73
2005-05-26 12:38 51°15.997 2°52.403 12.8 59 16.1 101600 73
2005-05-26 12:39 51°15.778 2°52.42 12.2 58 16.1 101600 73
2005-05-26 12:40 51°15.567 2°52.466 11.3 59 16.1 101600 74
2005-05-26 12:41 51°15.354 2°52.511 11.6 67 16.1 101600 74
2005-05-26 12:42 51°15.135 2°52.565 11.3 69 16.1 101600 74
2005-05-26 12:43 51°15.003 2°52.669 6.8 121 16.2 101610 74
2005-05-26 12:44 51°14.961 2°52.806 6 151 16.2 101630 73
2005-05-26 12:45 51°14.955 2°52.919 8.4 157 16.3 101630 73
2005-05-26 12:46 51°14.953 2°53.008 7.5 142 16.3 101620 73
2005-05-26 12:47 51°14.952 2°53.085 9.2 138 16.3 101620 73
2005-05-26 12:48 51°14.953 2°53.153 9.2 130 16.4 101620 73
2005-05-26 12:49 51°14.955 2°53.213 8.5 126 16.4 101620 72
2005-05-26 12:50 51°14.958 2°53.27 6.4 123 16.4 101620 73
2005-05-26 12:51 51°14.955 2°53.39 4.8 201 16.4 101620 73
2005-05-26 12:52 51°14.971 2°53.453 8.2 232 16.6 101640 72
2005-05-26 12:53 51°14.99 2°53.511 7.8 246 16.6 101620 71
2005-05-26 12:54 51°15.012 2°53.57 6.9 256 16.6 101620 71
2005-05-26 12:55 51°15.034 2°53.625 6.7 260 16.7 101620 71
2005-05-26 12:56 51°15.056 2°53.68 9.7 267 16.7 101620 71
2005-05-26 12:57 51°15.083 2°53.736 10.9 273 16.8 101620 71
2005-05-26 12:58 51°15.138 2°53.876 2.6 168 16.9 101620 71
2005-05-26 12:59 51°15.054 2°54.071 7.7 83 16.9 101620 70
2005-05-26 13:00 51°14.902 2°54.279 7.5 90 16.8 101620 71
2005-05-26 13:01 51°14.748 2°54.516 5.9 80 16.6 101620 73
2005-05-26 13:02 51°14.586 2°54.726 8.5 60 16.5 101620 73
2005-05-26 13:03 51°14.424 2°54.927 7.5 39 16.4 101620 75
2005-05-26 13:04 51°14.302 2°55.157 6 58 16.3 101630 76
2005-05-26 13:05 51°14.233 2°55.313 5.9 99 16.2 101640 77
2005-05-26 13:06 51°14.17 2°55.387 6 99 16.5 101640 75
2005-05-26 13:07 51°14.1 2°55.442 4.5 119 16.8 101640 71
2005-05-26 13:08 51°14.019 2°55.498 2.7 102 17.1 101630 69
2005-05-26 13:09 51°13.948 2°55.547 3.9 84 17.5 101630 66
2005-05-26 13:10 51°13.868 2°55.607 6.8 89 17.8 101620 65
2005-05-26 13:11 51°13.777 2°55.677 2.2 38 18.1 101620 63
2005-05-26 13:12 51°13.708 2°55.778 3.2 136 18.5 101630 61
2005-05-26 13:13 51°13.671 2°55.879 5.2 151 18.8 101630 60
2005-05-26 13:14 51°13.637 2°55.971 2.7 119 19 101630 58
2005-05-26 13:15 51°13.611 2°56.058 2.6 198 19.2 101630 58
2005-05-26 13:16 51°13.599 2°56.104 3.5 180 19.5 101630 55